createdAt,value
2023-04-23T00:00:35.183Z,7.47
2023-04-23T00:03:10.355Z,8.35
2023-04-23T00:05:38.666Z,7.65
2023-04-23T00:08:06.944Z,9.73
2023-04-23T00:10:34.963Z,7.28
2023-04-23T00:13:03.612Z,7.85
2023-04-23T00:15:32.282Z,7.57
2023-04-23T00:18:01.172Z,8.10
2023-04-23T00:20:28.700Z,8.38
2023-04-23T00:22:56.395Z,7.68
2023-04-23T00:25:23.964Z,7.43
2023-04-23T00:27:51.538Z,7.57
2023-04-23T00:30:19.238Z,8.25
2023-04-23T00:32:47.672Z,9.13
2023-04-23T00:35:16.683Z,9.80
2023-04-23T00:37:44.591Z,8.82
2023-04-23T00:40:12.567Z,8.32
2023-04-23T00:42:40.929Z,10.23
2023-04-23T00:45:09.639Z,8.35
2023-04-23T00:47:37.660Z,8.68
2023-04-23T00:50:06.571Z,10.07
2023-04-23T00:52:36.012Z,9.10
2023-04-23T00:55:03.951Z,10.95
2023-04-23T00:57:32.009Z,9.45
2023-04-23T01:00:00.327Z,11.07
2023-04-23T01:02:30.228Z,9.73
2023-04-23T01:05:00.845Z,10.38
2023-04-23T01:07:29.021Z,10.48
2023-04-23T01:09:58.120Z,9.25
2023-04-23T01:12:25.656Z,10.38
2023-04-23T01:14:53.229Z,11.07
2023-04-23T01:17:21.461Z,12.02
2023-04-23T01:19:49.153Z,11.85
2023-04-23T01:22:18.175Z,11.80
2023-04-23T01:24:46.190Z,11.30
2023-04-23T01:27:13.875Z,11.65
2023-04-23T01:29:41.951Z,10.88
2023-04-23T01:32:09.728Z,11.35
2023-04-23T01:34:39.908Z,11.63
2023-04-23T01:37:08.513Z,12.85
2023-04-23T01:39:37.475Z,10.98
2023-04-23T01:42:07.032Z,10.93
2023-04-23T01:44:34.670Z,9.80
2023-04-23T01:47:02.258Z,11.77
2023-04-23T01:49:32.648Z,11.10
2023-04-23T01:52:00.374Z,11.00
2023-04-23T01:54:27.950Z,10.68
2023-04-23T01:56:56.910Z,9.40
2023-04-23T01:59:24.498Z,10.00
2023-04-23T02:01:52.089Z,10.82
2023-04-23T02:04:20.517Z,11.40
2023-04-23T02:06:50.781Z,14.20
2023-04-23T02:09:18.565Z,15.50
2023-04-23T02:11:46.151Z,15.02
2023-04-23T02:14:15.039Z,15.85
2023-04-23T02:16:42.687Z,16.25
2023-04-23T02:19:10.360Z,19.05
2023-04-23T02:21:37.888Z,22.30
2023-04-23T02:24:06.032Z,27.45
2023-04-23T02:26:33.645Z,29.73
2023-04-23T02:29:01.212Z,29.05
2023-04-23T02:31:30.278Z,29.60
2023-04-23T02:33:58.476Z,30.23
2023-04-23T02:36:26.310Z,26.23
2023-04-23T02:38:53.891Z,26.55
2023-04-23T02:41:21.585Z,24.50
2023-04-23T02:43:49.114Z,23.75
2023-04-23T02:46:16.713Z,26.75
2023-04-23T02:48:45.675Z,23.45
2023-04-23T02:51:14.742Z,22.85
2023-04-23T02:53:42.394Z,24.92
2023-04-23T02:56:09.987Z,24.00
2023-04-23T02:58:37.629Z,22.80
2023-04-23T03:01:06.062Z,21.88
2023-04-23T03:03:34.928Z,26.70
2023-04-23T03:06:07.650Z,22.40
2023-04-23T03:08:35.365Z,22.70
2023-04-23T03:11:02.904Z,23.67
2023-04-23T03:13:30.723Z,23.55
2023-04-23T03:15:58.549Z,21.00
2023-04-23T03:18:27.293Z,25.42
2023-04-23T03:20:56.234Z,25.02
2023-04-23T03:23:25.506Z,25.80
2023-04-23T03:25:53.066Z,23.30
2023-04-23T03:28:20.846Z,21.77
2023-04-23T03:30:48.633Z,21.23
2023-04-23T03:33:16.399Z,20.35
2023-04-23T03:35:44.136Z,21.60
2023-04-23T03:38:16.373Z,19.25
2023-04-23T03:40:46.091Z,17.40
2023-04-23T03:43:13.824Z,17.15
2023-04-23T03:46:07.193Z,16.20
2023-04-23T03:48:38.902Z,15.77
2023-04-23T03:51:11.498Z,18.83
2023-04-23T03:53:43.480Z,18.42
2023-04-23T03:56:36.280Z,19.08
2023-04-23T03:59:16.929Z,16.75
2023-04-23T04:01:45.915Z,16.15
2023-04-23T04:04:13.882Z,14.27
2023-04-23T04:06:41.789Z,18.95
2023-04-23T04:09:09.394Z,16.35
2023-04-23T04:11:38.337Z,17.23
2023-04-23T04:14:06.020Z,13.65
2023-04-23T04:16:33.628Z,15.77
2023-04-23T04:19:01.598Z,14.48
2023-04-23T04:21:29.933Z,13.93
2023-04-23T04:23:57.988Z,12.95
2023-04-23T04:26:25.519Z,14.63
2023-04-23T04:28:54.452Z,13.80
2023-04-23T04:31:22.652Z,11.75
2023-04-23T04:33:50.713Z,12.20
2023-04-23T04:36:18.725Z,12.60
2023-04-23T04:38:46.507Z,12.70
2023-04-23T04:41:14.209Z,11.18
2023-04-23T04:43:43.570Z,10.77
2023-04-23T04:46:12.692Z,10.85
2023-04-23T04:48:40.348Z,10.73
2023-04-23T04:51:08.500Z,9.02
2023-04-23T04:53:36.179Z,11.98
2023-04-23T04:56:03.846Z,10.52
2023-04-23T04:58:31.588Z,9.80
2023-04-23T05:00:59.932Z,8.50
2023-04-23T05:03:29.218Z,8.60
2023-04-23T05:05:58.483Z,10.30
2023-04-23T05:08:26.231Z,8.98
2023-04-23T05:10:54.212Z,9.07
2023-04-23T05:13:21.870Z,7.97
2023-04-23T05:15:49.369Z,9.90
2023-04-23T05:18:16.884Z,7.68
2023-04-23T05:20:46.009Z,7.93
2023-04-23T05:23:13.749Z,6.82
2023-04-23T05:25:41.257Z,10.57
2023-04-23T05:28:09.549Z,8.93
2023-04-23T05:30:37.170Z,9.75
2023-04-23T05:33:04.998Z,8.05
2023-04-23T05:35:32.688Z,9.23
2023-04-23T05:38:02.764Z,7.43
2023-04-23T05:40:30.413Z,8.27
2023-04-23T05:42:59.706Z,10.20
2023-04-23T05:45:27.463Z,7.57
2023-04-23T05:47:55.017Z,8.32
2023-04-23T05:50:22.915Z,10.18
2023-04-23T05:52:53.796Z,11.00
2023-04-23T05:55:23.886Z,8.90
2023-04-23T05:57:51.739Z,8.80
2023-04-23T06:00:19.407Z,8.70
2023-04-23T06:02:47.810Z,7.65
2023-04-23T06:05:16.044Z,8.75
2023-04-23T06:07:43.667Z,10.93
2023-04-23T06:10:12.118Z,12.57
2023-04-23T06:12:42.047Z,9.93
2023-04-23T06:15:11.305Z,10.57
2023-04-23T06:17:39.300Z,10.52
2023-04-23T06:20:08.927Z,9.25
2023-04-23T06:22:36.844Z,8.57
2023-04-23T06:25:04.709Z,10.18
2023-04-23T06:27:33.637Z,7.82
2023-04-23T06:30:09.408Z,7.50
2023-04-23T06:32:37.105Z,5.85
2023-04-23T06:35:05.417Z,6.45
2023-04-23T06:37:33.215Z,6.85
2023-04-23T06:40:00.821Z,10.23
2023-04-23T06:42:28.553Z,7.22
2023-04-23T06:45:12.323Z,7.13
2023-04-23T06:47:40.466Z,9.75
2023-04-23T06:50:09.335Z,9.90
2023-04-23T06:52:37.030Z,9.77
2023-04-23T06:55:05.044Z,5.85
2023-04-23T06:57:32.627Z,6.72
2023-04-23T07:00:00.256Z,6.30
2023-04-23T07:02:34.638Z,11.45
2023-04-23T07:05:02.462Z,12.25
2023-04-23T07:07:30.020Z,7.82
2023-04-23T07:09:57.604Z,11.82
2023-04-23T07:12:25.606Z,9.57
2023-04-23T07:14:54.416Z,9.35
2023-04-23T07:17:22.159Z,5.75
2023-04-23T07:19:54.164Z,8.35
2023-04-23T07:22:21.812Z,8.80
2023-04-23T07:24:49.356Z,7.80
2023-04-23T07:27:17.058Z,9.65
2023-04-23T07:29:44.740Z,10.60
2023-04-23T07:32:15.338Z,8.25
2023-04-23T07:34:43.888Z,6.75
2023-04-23T07:37:13.125Z,14.13
2023-04-23T07:39:43.384Z,9.55
2023-04-23T07:42:11.835Z,7.13
2023-04-23T07:44:39.469Z,8.57
2023-04-23T07:47:06.970Z,6.72
2023-04-23T07:49:34.757Z,7.30
2023-04-23T07:52:02.337Z,9.70
2023-04-23T07:54:31.293Z,9.10
2023-04-23T07:56:59.340Z,12.75
2023-04-23T07:59:27.474Z,6.50
2023-04-23T08:01:55.200Z,7.95
2023-04-23T08:04:22.882Z,6.32
2023-04-23T08:06:50.993Z,5.93
2023-04-23T08:09:19.609Z,6.15
2023-04-23T08:11:49.035Z,10.10
2023-04-23T08:14:16.700Z,8.43
2023-04-23T08:16:44.962Z,8.45
2023-04-23T08:19:12.590Z,7.93
2023-04-23T08:21:40.926Z,7.47
2023-04-23T08:24:08.692Z,9.20
2023-04-23T08:26:36.534Z,10.20
2023-04-23T08:29:07.834Z,8.25
2023-04-23T08:31:37.283Z,7.25
2023-04-23T08:34:04.930Z,11.15
2023-04-23T08:36:32.660Z,8.45
2023-04-23T08:39:00.770Z,7.15
2023-04-23T08:41:34.569Z,7.70
2023-04-23T08:44:08.831Z,7.40
2023-04-23T08:46:37.898Z,5.85
2023-04-23T08:49:08.968Z,7.88
2023-04-23T08:51:39.375Z,6.82
2023-04-23T08:54:10.999Z,7.65
2023-04-23T08:56:40.124Z,8.63
2023-04-23T08:59:09.188Z,7.88
2023-04-23T09:01:36.938Z,11.68
2023-04-23T09:04:04.577Z,7.95
2023-04-23T09:06:33.082Z,7.03
2023-04-23T09:09:01.088Z,8.57
2023-04-23T09:11:29.751Z,8.40
2023-04-23T09:13:58.036Z,7.88
2023-04-23T09:16:28.068Z,10.15
2023-04-23T09:18:55.748Z,8.68
2023-04-23T09:21:23.424Z,7.30
2023-04-23T09:23:52.512Z,8.98
2023-04-23T09:26:21.504Z,7.50
2023-04-23T09:28:50.474Z,8.00
2023-04-23T09:31:21.790Z,9.25
2023-04-23T09:33:55.224Z,8.68
2023-04-23T09:36:26.236Z,9.65
2023-04-23T09:38:57.621Z,7.88
2023-04-23T09:41:26.013Z,9.07
2023-04-23T09:43:57.773Z,11.05
2023-04-23T09:46:35.805Z,12.73
2023-04-23T09:49:07.724Z,9.57
2023-04-23T09:51:37.515Z,10.02
2023-04-23T09:54:05.913Z,9.05
2023-04-23T09:56:33.643Z,12.30
2023-04-23T09:59:01.313Z,16.70
2023-04-23T10:01:30.442Z,11.00
2023-04-23T10:03:58.380Z,11.15
2023-04-23T10:06:44.184Z,10.27
2023-04-23T10:09:17.572Z,11.40
2023-04-23T10:11:45.646Z,13.30
2023-04-23T10:14:13.871Z,14.43
2023-04-23T10:16:48.970Z,11.80
2023-04-23T10:19:20.319Z,12.77
2023-04-23T10:21:56.159Z,12.73
2023-04-23T10:24:30.594Z,12.90
2023-04-23T10:27:02.147Z,11.45
2023-04-23T10:29:31.082Z,13.43
2023-04-23T10:32:00.718Z,15.02
2023-04-23T10:34:29.460Z,14.73
2023-04-23T10:37:00.485Z,12.93
2023-04-23T10:39:31.371Z,12.30
2023-04-23T10:42:00.617Z,14.07
2023-04-23T10:44:57.362Z,14.52
2023-04-23T10:47:22.896Z,17.67
2023-04-23T10:49:51.586Z,13.35
2023-04-23T10:52:24.417Z,12.82
2023-04-23T10:54:59.923Z,13.40
2023-04-23T10:57:27.832Z,14.32
2023-04-23T10:59:58.625Z,19.90
2023-04-23T11:02:26.627Z,18.02
2023-04-23T11:04:56.917Z,16.92
2023-04-23T11:07:32.026Z,13.18
2023-04-23T11:10:00.781Z,14.68
2023-04-23T11:12:34.863Z,13.93
2023-04-23T11:15:11.756Z,16.67
2023-04-23T11:18:01.750Z,16.50
2023-04-23T11:20:29.539Z,12.77
2023-04-23T11:22:58.391Z,17.42
2023-04-23T11:25:27.769Z,11.27
2023-04-23T11:27:58.185Z,12.00
2023-04-23T11:30:27.032Z,10.00
2023-04-23T11:32:56.622Z,10.02
2023-04-23T11:35:28.297Z,11.88
2023-04-23T11:37:56.406Z,8.88
2023-04-23T11:40:25.806Z,13.88
2023-04-23T11:42:55.431Z,9.60
2023-04-23T11:45:24.563Z,9.98
2023-04-23T11:47:55.958Z,14.55
2023-04-23T11:50:25.788Z,10.73
2023-04-23T11:52:53.811Z,7.78
2023-04-23T11:55:21.699Z,9.57
2023-04-23T11:57:52.744Z,8.18
2023-04-23T12:00:22.610Z,8.68
2023-04-23T12:02:55.113Z,7.80
2023-04-23T12:05:23.715Z,7.85
2023-04-23T12:07:52.703Z,8.05
2023-04-23T12:10:21.459Z,5.88
2023-04-23T12:12:54.161Z,7.18
2023-04-23T12:15:22.038Z,6.63
2023-04-23T12:17:51.140Z,6.40
2023-04-23T12:20:21.019Z,8.32
2023-04-23T12:22:49.158Z,7.35
2023-04-23T12:25:17.115Z,6.53
2023-04-23T12:27:46.180Z,5.15
2023-04-23T12:30:15.444Z,5.85
2023-04-23T12:32:43.088Z,7.13
2023-04-23T12:35:11.381Z,6.80
2023-04-23T12:37:39.104Z,6.78
2023-04-23T12:40:08.094Z,8.05
2023-04-23T12:42:36.987Z,4.85
2023-04-23T12:45:10.802Z,4.50
2023-04-23T12:47:39.862Z,5.75
2023-04-23T12:50:08.625Z,4.03
2023-04-23T12:52:36.191Z,5.32
2023-04-23T12:55:04.967Z,6.07
2023-04-23T12:57:32.767Z,4.20
2023-04-23T13:00:00.571Z,4.68
2023-04-23T13:02:28.282Z,4.60
2023-04-23T13:05:00.853Z,6.25
2023-04-23T13:07:28.838Z,5.18
2023-04-23T13:09:57.168Z,8.70
2023-04-23T13:12:24.942Z,4.78
2023-04-23T13:14:52.577Z,4.82
2023-04-23T13:17:20.381Z,4.13
2023-04-23T13:19:48.080Z,3.92
2023-04-23T13:22:17.099Z,3.60
2023-04-23T13:24:44.801Z,3.67
2023-04-23T13:27:12.533Z,4.03
2023-04-23T13:29:40.877Z,4.35
2023-04-23T13:32:08.733Z,3.60
2023-04-23T13:34:36.452Z,4.15
2023-04-23T13:37:05.784Z,3.97
2023-04-23T13:39:34.702Z,4.68
2023-04-23T13:42:09.482Z,5.35
2023-04-23T13:44:37.675Z,5.63
2023-04-23T13:47:05.363Z,5.60
2023-04-23T13:49:33.262Z,4.72
2023-04-23T13:52:04.364Z,5.00
2023-04-23T13:54:32.052Z,4.18
2023-04-23T13:57:01.224Z,4.63
2023-04-23T13:59:28.778Z,4.20
2023-04-23T14:01:56.378Z,3.53
2023-04-23T14:04:24.438Z,6.15
2023-04-23T14:06:52.124Z,3.85
2023-04-23T14:09:22.074Z,5.45
2023-04-23T14:11:49.783Z,5.60
2023-04-23T14:14:19.157Z,4.45
2023-04-23T14:16:46.843Z,4.75
2023-04-23T14:19:14.453Z,3.55
2023-04-23T14:21:42.269Z,5.68
2023-04-23T14:24:17.117Z,4.28
2023-04-23T14:26:49.676Z,11.48
2023-04-23T14:29:26.332Z,7.25
2023-04-23T14:31:53.946Z,9.57
2023-04-23T14:34:22.072Z,11.02
2023-04-23T14:36:49.887Z,12.60
2023-04-23T14:39:17.653Z,12.05
2023-04-23T14:41:45.293Z,13.18
2023-04-23T14:44:13.176Z,12.18
2023-04-23T14:46:42.131Z,18.10
2023-04-23T14:49:09.697Z,15.20
2023-04-23T14:51:37.802Z,14.30
2023-04-23T14:54:05.954Z,13.25
2023-04-23T14:56:33.541Z,13.15
2023-04-23T14:59:01.130Z,9.73
2023-04-23T15:01:29.047Z,6.65
2023-04-23T15:03:58.165Z,5.85
2023-04-23T15:06:25.782Z,7.35
2023-04-23T15:08:53.509Z,6.38
2023-04-23T15:11:21.332Z,7.82
2023-04-23T15:13:57.758Z,12.25
2023-04-23T15:16:47.682Z,6.97
2023-04-23T15:19:18.784Z,6.00
2023-04-23T15:21:47.315Z,8.98
2023-04-23T15:24:15.256Z,8.40
2023-04-23T15:26:43.245Z,4.18
2023-04-23T15:29:11.132Z,3.78
2023-04-23T15:31:39.125Z,4.43
2023-04-23T15:34:08.606Z,3.83
2023-04-23T15:36:38.494Z,3.72
2023-04-23T15:39:07.386Z,3.50
2023-04-23T15:41:39.368Z,3.40
2023-04-23T15:44:10.686Z,4.47
2023-04-23T15:46:38.499Z,7.65
2023-04-23T15:49:06.094Z,7.72
2023-04-23T15:51:33.886Z,4.85
2023-04-23T15:54:02.896Z,5.72
2023-04-23T15:56:30.551Z,5.20
2023-04-23T15:58:58.142Z,5.05
2023-04-23T16:01:27.471Z,6.70
2023-04-23T16:04:09.538Z,5.70
2023-04-23T16:06:38.287Z,4.95
2023-04-23T16:09:07.993Z,7.18
2023-04-23T16:11:36.112Z,5.55
2023-04-23T16:14:04.498Z,6.20
2023-04-23T16:16:32.217Z,5.65
2023-04-23T16:19:00.039Z,4.40
2023-04-23T16:21:28.076Z,7.60
2023-04-23T16:23:55.880Z,5.72
2023-04-23T16:26:25.360Z,7.78
2023-04-23T16:29:05.847Z,7.43
2023-04-23T16:31:41.010Z,6.93
2023-04-23T16:34:08.956Z,7.38
2023-04-23T16:36:36.544Z,9.50
2023-04-23T16:39:04.292Z,10.70
2023-04-23T16:41:33.542Z,8.07
2023-04-23T16:44:01.156Z,10.07
2023-04-23T16:46:30.860Z,10.43
2023-04-23T16:48:58.670Z,12.07
2023-04-23T16:51:26.379Z,12.57
2023-04-23T16:53:54.170Z,14.75
2023-04-23T16:56:22.080Z,15.57
2023-04-23T16:58:51.079Z,14.38
2023-04-23T17:01:19.053Z,14.38
2023-04-23T17:03:46.836Z,16.30
2023-04-23T17:06:25.649Z,13.38
2023-04-23T17:08:53.339Z,14.77
2023-04-23T17:11:20.967Z,14.80
2023-04-23T17:13:48.587Z,16.38
2023-04-23T17:16:17.795Z,18.77
2023-04-23T17:18:45.978Z,17.63
2023-04-23T17:21:13.739Z,19.73
2023-04-23T17:23:41.324Z,21.52
2023-04-23T17:26:09.162Z,19.15
2023-04-23T17:28:36.821Z,19.98
2023-04-23T17:31:04.626Z,25.25
2023-04-23T17:33:33.689Z,23.23
2023-04-23T17:36:01.382Z,19.75
2023-04-23T17:38:29.344Z,21.42
2023-04-23T17:40:57.611Z,19.33
2023-04-23T17:43:25.216Z,23.33
2023-04-23T17:45:52.987Z,21.52
2023-04-23T17:48:22.969Z,19.67
2023-04-23T17:50:54.314Z,21.08
2023-04-23T17:53:22.034Z,20.88
2023-04-23T17:55:49.914Z,18.40
2023-04-23T17:58:19.149Z,16.08
2023-04-23T18:00:47.004Z,17.60
2023-04-23T18:03:18.656Z,16.13
2023-04-23T18:05:46.351Z,17.85
2023-04-23T18:08:17.116Z,16.23
2023-04-23T18:10:45.811Z,17.55
2023-04-23T18:13:13.650Z,16.48
2023-04-23T18:15:42.058Z,14.52
2023-04-23T18:18:10.070Z,15.63
2023-04-23T18:20:38.950Z,17.80
2023-04-23T18:23:07.980Z,14.73
2023-04-23T18:25:37.084Z,14.63
2023-04-23T18:28:04.621Z,14.70
2023-04-23T18:30:32.308Z,15.55
2023-04-23T18:33:07.631Z,15.95
2023-04-23T18:35:35.378Z,15.65
2023-04-23T18:38:10.903Z,20.92
2023-04-23T18:40:39.810Z,17.42
2023-04-23T18:43:07.636Z,17.23
2023-04-23T18:45:35.832Z,19.30
2023-04-23T18:48:18.655Z,21.65
2023-04-23T18:50:50.635Z,17.80
2023-04-23T18:53:19.093Z,16.98
2023-04-23T18:55:49.730Z,17.90
2023-04-23T18:58:17.687Z,16.33
2023-04-23T19:00:45.341Z,15.38
2023-04-23T19:03:25.251Z,19.08
2023-04-23T19:05:54.371Z,17.75
2023-04-23T19:08:22.693Z,17.42
2023-04-23T19:10:51.872Z,18.70
2023-04-23T19:13:21.892Z,15.38
2023-04-23T19:15:50.314Z,15.55
2023-04-23T19:18:18.192Z,15.75
2023-04-23T19:20:45.996Z,18.13
2023-04-23T19:23:13.596Z,17.60
2023-04-23T19:25:41.165Z,18.70
2023-04-23T19:28:10.066Z,14.90
2023-04-23T19:30:37.943Z,14.88
2023-04-23T19:33:05.743Z,13.85
2023-04-23T19:35:33.555Z,15.23
2023-04-23T19:38:01.141Z,14.55
2023-04-23T19:40:28.774Z,13.15
2023-04-23T19:42:56.576Z,14.00
2023-04-23T19:45:26.755Z,14.95
2023-04-23T19:47:54.569Z,13.30
2023-04-23T19:50:22.338Z,13.75
2023-04-23T19:52:50.018Z,14.18
2023-04-23T19:55:18.170Z,13.40
2023-04-23T19:57:46.069Z,12.30
2023-04-23T20:00:14.852Z,11.93
2023-04-23T20:02:44.121Z,12.20
2023-04-23T20:05:11.821Z,12.60
2023-04-23T20:07:39.593Z,13.25
2023-04-23T20:10:08.410Z,12.80
2023-04-23T20:12:36.134Z,13.30
2023-04-23T20:15:04.022Z,12.18
2023-04-23T20:17:31.716Z,11.85
2023-04-23T20:20:01.901Z,11.38
2023-04-23T20:22:30.048Z,11.45
2023-04-23T20:24:58.824Z,11.70
2023-04-23T20:27:26.838Z,10.95
2023-04-23T20:29:54.607Z,11.70
2023-04-23T20:32:22.162Z,12.10
2023-04-23T20:34:49.744Z,10.57
2023-04-23T20:37:21.403Z,9.93
2023-04-23T20:39:49.252Z,11.07
2023-04-23T20:42:16.985Z,10.07
2023-04-23T20:44:46.953Z,10.40
2023-04-23T20:47:16.245Z,9.32
2023-04-23T20:49:44.077Z,9.73
2023-04-23T20:52:12.292Z,10.00
2023-04-23T20:54:41.514Z,8.32
2023-04-23T20:57:09.145Z,10.50
2023-04-23T20:59:36.804Z,8.80
2023-04-23T21:02:06.428Z,8.48
2023-04-23T21:04:34.110Z,8.75
2023-04-23T21:07:02.258Z,8.57
2023-04-23T21:09:29.913Z,8.75
2023-04-23T21:11:59.276Z,9.68
2023-04-23T21:14:26.856Z,8.80
2023-04-23T21:16:56.228Z,7.45
2023-04-23T21:19:23.832Z,9.35
2023-04-23T21:21:51.399Z,9.52
2023-04-23T21:24:19.080Z,8.45
2023-04-23T21:26:46.806Z,9.43
2023-04-23T21:29:15.823Z,6.72
2023-04-23T21:31:45.997Z,7.18
2023-04-23T21:34:15.144Z,7.20
2023-04-23T21:36:44.538Z,8.88
2023-04-23T21:39:13.218Z,6.95
2023-04-23T21:41:41.087Z,6.75
2023-04-23T21:44:09.144Z,6.68
2023-04-23T21:46:38.259Z,5.78
2023-04-23T21:49:05.926Z,6.43
2023-04-23T21:51:37.066Z,5.50
2023-04-23T21:54:05.537Z,7.22
2023-04-23T21:56:33.693Z,5.70
2023-04-23T21:59:01.364Z,6.60
2023-04-23T22:01:29.035Z,5.97
2023-04-23T22:03:58.857Z,6.40
2023-04-23T22:06:27.634Z,6.88
2023-04-23T22:08:56.093Z,6.20
2023-04-23T22:11:23.782Z,6.30
2023-04-23T22:13:51.370Z,5.95
2023-04-23T22:16:28.034Z,6.65
2023-04-23T22:18:58.240Z,6.88
2023-04-23T22:21:25.999Z,6.72
2023-04-23T22:23:53.632Z,5.93
2023-04-23T22:26:21.809Z,6.53
2023-04-23T22:28:49.425Z,6.20
2023-04-23T22:31:17.253Z,6.55
2023-04-23T22:33:45.099Z,7.60
2023-04-23T22:36:14.155Z,6.82
2023-04-23T22:38:41.984Z,7.15
2023-04-23T22:41:09.695Z,7.50
2023-04-23T22:43:37.512Z,7.05
2023-04-23T22:46:05.479Z,7.05
2023-04-23T22:48:33.310Z,6.00
2023-04-23T22:51:01.739Z,7.10
2023-04-23T22:53:32.268Z,6.70
2023-04-23T22:55:59.881Z,6.50
2023-04-23T22:58:27.524Z,6.75
2023-04-23T23:00:55.447Z,7.20
2023-04-23T23:03:23.235Z,6.25
2023-04-23T23:05:51.039Z,7.90
2023-04-23T23:08:18.624Z,6.72
2023-04-23T23:10:47.640Z,7.07
2023-04-23T23:13:15.390Z,7.28
2023-04-23T23:15:43.055Z,7.68
2023-04-23T23:18:11.323Z,7.78
2023-04-23T23:20:40.348Z,7.07
2023-04-23T23:23:07.954Z,9.55
2023-04-23T23:25:38.176Z,7.90
2023-04-23T23:28:07.331Z,7.93
2023-04-23T23:30:34.981Z,7.60
2023-04-23T23:33:02.719Z,8.43
2023-04-23T23:35:30.677Z,8.40
2023-04-23T23:37:58.315Z,8.30
2023-04-23T23:40:25.893Z,8.52
2023-04-23T23:42:53.422Z,8.73
2023-04-23T23:45:22.433Z,8.95
2023-04-23T23:47:50.291Z,11.30
2023-04-23T23:50:18.381Z,8.38
2023-04-23T23:52:45.937Z,8.00
2023-04-23T23:55:13.665Z,8.68
2023-04-23T23:57:41.294Z,8.10
